Time;durP1;ratioP1;P1;durP2;ratioP2;P2;SDS_P1;SDS_P2;PMS_P1;PMS_P2;Temp;Humidity;BMP_temperature;BMP_pressure;BME280_temperature;BME280_humidity;BME280_pressure;Samples;Min_cycle;Max_cycle;Signal;HPM_P1;HPM_P2
2023/05/06 00:01:00;;;;;;;6.40;5.90;;;;;;;12.64;nan;99224.22;6159687;23;20162;-83
2023/05/06 00:03:27;;;;;;;6.57;5.77;;;;;;;12.61;nan;99219.28;6110168;23;20189;-83
2023/05/06 00:05:54;;;;;;;6.80;6.20;;;;;;;12.56;nan;99214.66;6134555;23;20170;-83
2023/05/06 00:08:20;;;;;;;6.50;5.87;;;;;;;12.47;nan;99215.28;6110510;23;20173;-83
2023/05/06 00:10:47;;;;;;;6.47;5.87;;;;;;;12.44;nan;99207.72;6134380;23;20177;-84
2023/05/06 00:13:14;;;;;;;6.63;6.00;;;;;;;12.42;nan;99212.50;6134202;23;20183;-83
2023/05/06 00:15:41;;;;;;;6.80;6.30;;;;;;;12.32;nan;99215.81;6110321;23;20173;-83
2023/05/06 00:18:08;;;;;;;7.03;6.43;;;;;;;12.27;nan;99221.13;6134227;23;20169;-84
2023/05/06 00:20:35;;;;;;;8.37;6.10;;;;;;;12.24;nan;99216.22;6159052;23;20169;-83
2023/05/06 00:23:01;;;;;;;6.97;6.30;;;;;;;12.29;nan;99213.63;6159189;23;20169;-83
2023/05/06 00:25:28;;;;;;;6.70;6.17;;;;;;;12.30;nan;99207.19;6153925;23;20211;-84
2023/05/06 00:27:55;;;;;;;6.87;6.17;;;;;;;12.29;nan;99201.00;6158950;23;20172;-84
2023/05/06 00:30:22;;;;;;;6.57;5.97;;;;;;;12.30;nan;99186.53;6134263;23;20176;-83
2023/05/06 00:32:50;;;;;;;6.60;5.97;;;;;;;12.21;nan;99182.59;6134622;23;20183;-83
2023/05/06 00:35:16;;;;;;;6.60;6.00;;;;;;;12.28;nan;99179.75;6158796;23;20265;-83
2023/05/06 00:37:45;;;;;;;7.10;6.50;;;;;;;12.17;nan;99191.38;6183385;23;20170;-85
2023/05/06 00:40:13;;;;;;;6.80;6.17;;;;;;;12.12;nan;99193.97;6134854;23;20173;-82
2023/05/06 00:42:39;;;;;;;6.60;6.10;;;;;;;12.16;nan;99219.28;6134808;23;20627;-83
2023/05/06 00:45:07;;;;;;;6.87;6.27;;;;;;;12.17;nan;99243.22;6134194;23;20190;-82
2023/05/06 00:47:34;;;;;;;7.77;7.07;;;;;;;12.33;nan;99266.63;6158881;23;20204;-84
2023/05/06 00:50:02;;;;;;;8.20;7.40;;;;;;;12.54;nan;99293.88;6159109;23;20168;-83
2023/05/06 00:52:29;;;;;;;8.93;8.13;;;;;;;12.71;nan;99316.25;6134391;23;20175;-84
2023/05/06 00:54:56;;;;;;;9.77;8.90;;;;;;;12.90;nan;99322.22;6134785;23;20172;-84
2023/05/06 00:57:23;;;;;;;9.90;8.93;;;;;;;12.96;nan;99319.41;6134709;23;20188;-82
2023/05/06 00:59:50;;;;;;;10.23;8.63;;;;;;;12.94;nan;99315.31;6134825;23;20191;-82
2023/05/06 01:02:17;;;;;;;9.27;8.37;;;;;;;12.87;nan;99328.09;6158778;23;20176;-84
2023/05/06 01:04:44;;;;;;;8.90;8.10;;;;;;;12.93;nan;99310.97;6134728;23;20187;-82
2023/05/06 01:07:10;;;;;;;8.90;8.03;;;;;;;13.09;nan;99310.19;6133932;23;20176;-84
2023/05/06 01:09:41;;;;;;;8.43;7.60;;;;;;;13.17;nan;99305.25;6183397;23;20195;-84
2023/05/06 01:12:15;;;;;;;8.43;7.67;;;;;;;13.32;nan;99307.38;6134248;23;20157;-84
2023/05/06 01:14:54;;;;;;;8.10;7.30;;;;;;;13.38;nan;99297.50;6158869;23;20272;-83
2023/05/06 01:17:22;;;;;;;7.83;7.13;;;;;;;13.40;nan;99301.56;6158384;23;20165;-83
2023/05/06 01:19:52;;;;;;;7.00;6.40;;;;;;;13.54;nan;99293.97;6158832;23;20176;-83
2023/05/06 01:22:19;;;;;;;6.67;5.70;;;;;;;13.68;nan;99296.09;6158684;23;20198;-82
2023/05/06 01:24:46;;;;;;;5.90;5.40;;;;;;;13.80;nan;99296.00;6133803;23;20214;-82
2023/05/06 01:27:13;;;;;;;5.47;4.97;;;;;;;13.83;nan;99292.78;6133924;23;20213;-83
2023/05/06 01:29:42;;;;;;;5.00;4.60;;;;;;;13.89;nan;99288.28;6158188;23;20201;-82
2023/05/06 01:32:20;;;;;;;4.67;4.27;;;;;;;13.95;nan;99293.47;6158059;23;20377;-82
2023/05/06 01:35:06;;;;;;;5.30;4.80;;;;;;;13.97;nan;99294.06;6158996;23;20169;-82
2023/05/06 01:37:45;;;;;;;4.70;4.30;;;;;;;14.04;nan;99288.50;6183088;23;20178;-83
2023/05/06 01:40:13;;;;;;;4.90;4.50;;;;;;;14.01;nan;99295.19;6158237;23;20177;-83
2023/05/06 01:42:40;;;;;;;5.23;4.57;;;;;;;14.06;nan;99292.56;6135469;23;20217;-83
2023/05/06 01:45:09;;;;;;;4.77;4.33;;;;;;;14.08;nan;99295.00;6184595;23;20661;-83
2023/05/06 01:47:38;;;;;;;5.77;4.87;;;;;;;14.13;nan;99299.66;6184591;23;20216;-82
2023/05/06 01:50:05;;;;;;;5.07;4.57;;;;;;;14.12;nan;99304.22;6159656;23;20692;-83
2023/05/06 01:52:32;;;;;;;4.97;4.57;;;;;;;14.07;nan;99301.47;6135415;23;20175;-83
2023/05/06 01:54:59;;;;;;;4.67;4.27;;;;;;;14.07;nan;99299.59;6135642;23;20201;-82
2023/05/06 01:57:27;;;;;;;5.03;4.63;;;;;;;14.09;nan;99297.44;6159247;23;20620;-83
2023/05/06 01:59:54;;;;;;;4.83;4.33;;;;;;;14.07;nan;99304.16;6135706;23;20174;-82
2023/05/06 02:02:23;;;;;;;4.80;4.40;;;;;;;14.18;nan;99294.31;6159826;23;20174;-83
2023/05/06 02:04:51;;;;;;;5.30;4.80;;;;;;;14.13;nan;99291.56;6135643;23;20217;-82
2023/05/06 02:07:18;;;;;;;4.93;4.53;;;;;;;14.08;nan;99297.72;6134912;23;20170;-83
2023/05/06 02:09:47;;;;;;;5.50;5.00;;;;;;;14.07;nan;99296.88;6135733;23;20173;-83
2023/05/06 02:12:14;;;;;;;5.00;4.60;;;;;;;14.04;nan;99293.88;6159343;23;20166;-83
2023/05/06 02:14:41;;;;;;;5.93;4.97;;;;;;;14.04;nan;99293.88;6184540;23;20175;-83
2023/05/06 02:17:07;;;;;;;5.10;4.70;;;;;;;14.06;nan;99297.13;6159450;23;20170;-83
2023/05/06 02:19:34;;;;;;;6.23;4.43;;;;;;;14.12;nan;99293.44;6159695;23;20230;-83
2023/05/06 02:22:01;;;;;;;5.23;4.80;;;;;;;14.09;nan;99291.25;6184184;23;20158;-83
2023/05/06 02:24:28;;;;;;;5.40;4.90;;;;;;;14.13;nan;99288.88;6134663;23;20199;-83
2023/05/06 02:26:55;;;;;;;5.60;5.10;;;;;;;14.18;nan;99291.63;6159829;23;20177;-82
2023/05/06 02:29:21;;;;;;;5.87;5.40;;;;;;;14.26;nan;99283.91;6159598;23;20159;-82
2023/05/06 02:31:48;;;;;;;5.77;5.27;;;;;;;14.30;nan;99292.31;6135392;23;20171;-83
2023/05/06 02:34:18;;;;;;;5.60;5.10;;;;;;;14.25;nan;99276.91;6134858;23;20166;-82
2023/05/06 02:36:44;;;;;;;5.90;5.40;;;;;;;14.30;nan;99279.66;6135474;23;20175;-83
2023/05/06 02:39:11;;;;;;;5.27;4.87;;;;;;;14.30;nan;99289.59;6159329;23;20257;-83
2023/05/06 02:41:38;;;;;;;5.77;5.27;;;;;;;14.35;nan;99278.91;6134896;23;20170;-82
2023/05/06 02:44:05;;;;;;;5.83;5.30;;;;;;;14.39;nan;99285.44;6159247;23;20167;-83
2023/05/06 02:46:32;;;;;;;5.83;5.33;;;;;;;14.39;nan;99278.16;6134866;23;20166;-83
2023/05/06 02:48:59;;;;;;;6.07;5.57;;;;;;;14.39;nan;99259.31;6134668;23;20175;-82
2023/05/06 02:51:26;;;;;;;5.43;4.90;;;;;;;14.41;nan;99261.75;6134754;23;20167;-84
2023/05/06 02:53:53;;;;;;;5.50;5.00;;;;;;;14.43;nan;99271.19;6158907;23;20249;-83
2023/05/06 02:56:20;;;;;;;5.80;5.40;;;;;;;14.43;nan;99267.69;6159630;23;20629;-83
2023/05/06 02:58:47;;;;;;;5.47;5.00;;;;;;;14.44;nan;99261.22;6159201;23;20210;-83
2023/05/06 03:01:13;;;;;;;5.97;5.47;;;;;;;14.42;nan;99249.88;6134629;23;20171;-83
2023/05/06 03:03:40;;;;;;;6.40;5.80;;;;;;;14.52;nan;99255.38;6134669;23;20613;-83
2023/05/06 03:06:07;;;;;;;5.40;5.00;;;;;;;14.54;nan;99262.16;6134813;23;20237;-82
2023/05/06 03:08:34;;;;;;;6.10;5.60;;;;;;;14.51;nan;99256.47;6134568;23;20171;-83
2023/05/06 03:11:02;;;;;;;6.20;5.70;;;;;;;14.54;nan;99256.78;6135043;23;20170;-83
2023/05/06 03:13:29;;;;;;;6.40;5.80;;;;;;;14.46;nan;99254.50;6159174;23;20170;-83
2023/05/06 03:15:56;;;;;;;6.20;5.70;;;;;;;14.56;nan;99258.41;6159292;23;20200;-82
2023/05/06 03:18:22;;;;;;;6.40;5.83;;;;;;;14.49;nan;99262.09;6134585;23;20193;-82
2023/05/06 03:20:51;;;;;;;5.93;5.43;;;;;;;14.44;nan;99258.53;6159527;23;20253;-83
2023/05/06 03:23:18;;;;;;;6.00;5.50;;;;;;;14.45;nan;99254.78;6134472;23;20170;-83
2023/05/06 03:25:45;;;;;;;6.07;5.57;;;;;;;14.43;nan;99255.03;6111358;23;20206;-83
2023/05/06 03:28:12;;;;;;;5.50;5.00;;;;;;;14.45;nan;99262.88;6110097;23;20526;-82
2023/05/06 03:30:41;;;;;;;6.53;5.93;;;;;;;14.49;nan;99262.09;6110649;23;20188;-83
2023/05/06 03:33:08;;;;;;;6.43;5.50;;;;;;;14.52;nan;99268.84;6134459;23;20174;-82
2023/05/06 03:35:35;;;;;;;6.60;5.90;;;;;;;14.50;nan;99266.44;6133478;23;20604;-83
2023/05/06 03:38:01;;;;;;;6.40;5.80;;;;;;;14.54;nan;99266.75;6134397;23;20178;-83
2023/05/06 03:40:52;;;;;;;5.97;5.17;;;;;;;14.55;nan;99268.38;6143464;23;20174;-82
2023/05/06 03:43:19;;;;;;;5.97;5.37;;;;;;;14.53;nan;99273.19;6110175;23;20308;-82
2023/05/06 03:45:50;;;;;;;5.77;5.33;;;;;;;14.53;nan;99273.19;6111210;23;20458;-82
2023/05/06 03:48:17;;;;;;;5.80;5.27;;;;;;;14.59;nan;99271.38;6109657;23;20245;-83
2023/05/06 03:50:43;;;;;;;5.50;5.00;;;;;;;14.57;nan;99279.69;6133549;23;20174;-82
2023/05/06 03:53:11;;;;;;;5.50;5.00;;;;;;;14.58;nan;99275.94;6109725;23;20225;-83
2023/05/06 03:55:40;;;;;;;6.07;5.57;;;;;;;14.56;nan;99279.97;6133714;23;20166;-82
2023/05/06 03:58:10;;;;;;;5.77;5.30;;;;;;;14.58;nan;99284.03;6109934;23;20194;-82
2023/05/06 04:00:39;;;;;;;5.20;4.80;;;;;;;14.62;nan;99287.03;6110132;23;20174;-82
2023/05/06 04:03:06;;;;;;;5.57;5.17;;;;;;;14.60;nan;99294.56;6109156;23;20178;-82
2023/05/06 04:05:45;;;;;;;5.70;5.17;;;;;;;14.60;nan;99297.25;6113871;23;20526;-82
2023/05/06 04:08:16;;;;;;;5.80;5.30;;;;;;;14.60;nan;99292.69;6133814;23;20181;-82
2023/05/06 04:10:44;;;;;;;5.80;5.30;;;;;;;14.61;nan;99304.25;6109958;23;20162;-83
2023/05/06 04:13:17;;;;;;;5.47;5.07;;;;;;;14.60;nan;99300.78;6111588;23;20174;-82
2023/05/06 04:15:44;;;;;;;6.20;5.60;;;;;;;14.72;nan;99296.03;6109235;23;20166;-82
2023/05/06 04:18:18;;;;;;;6.20;5.70;;;;;;;14.65;nan;99298.09;6157781;23;20194;-82
2023/05/06 04:20:53;;;;;;;5.73;5.23;;;;;;;14.65;nan;99311.59;6135543;23;20212;-82
2023/05/06 04:23:20;;;;;;;6.43;5.83;;;;;;;14.62;nan;99311.28;6184352;23;20171;-83
2023/05/06 04:25:48;;;;;;;6.13;5.70;;;;;;;14.68;nan;99315.69;6133459;23;20198;-82
2023/05/06 04:28:17;;;;;;;7.17;6.57;;;;;;;14.68;nan;99307.59;6133882;23;20214;-82
2023/05/06 04:30:48;;;;;;;7.17;6.57;;;;;;;14.81;nan;99312.56;6134285;23;20162;-82
2023/05/06 04:33:15;;;;;;;6.50;5.83;;;;;;;14.78;nan;99316.59;6133690;23;20174;-83
2023/05/06 04:35:52;;;;;;;7.17;6.47;;;;;;;14.98;nan;99305.19;6109976;23;20181;-82
2023/05/06 04:38:25;;;;;;;7.53;6.93;;;;;;;15.04;nan;99309.56;6134227;23;20158;-82
2023/05/06 04:40:54;;;;;;;7.43;6.73;;;;;;;15.15;nan;99311.28;6134893;23;20170;-81
2023/05/06 04:43:21;;;;;;;7.03;6.53;;;;;;;15.24;nan;99307.03;6157774;23;20237;-82
2023/05/06 04:45:54;;;;;;;7.63;6.93;;;;;;;15.39;nan;99322.56;6134577;23;20208;-82
2023/05/06 04:48:25;;;;;;;6.87;6.17;;;;;;;15.51;nan;99325.09;6134438;23;20629;-82
2023/05/06 04:50:56;;;;;;;7.10;6.50;;;;;;;15.65;nan;99331.66;6134208;23;20167;-82
2023/05/06 04:53:22;;;;;;;6.93;6.33;;;;;;;15.77;nan;99338.50;6108995;23;20175;-83
2023/05/06 04:55:49;;;;;;;6.67;6.03;;;;;;;15.98;nan;99339.44;6133710;23;20170;-82
2023/05/06 04:58:17;;;;;;;7.70;7.00;;;;;;;16.01;nan;99333.50;6133170;23;20198;-82
2023/05/06 05:00:45;;;;;;;8.17;7.37;;;;;;;16.12;nan;99346.00;6109690;23;20200;-82
2023/05/06 05:03:12;;;;;;;7.23;6.53;;;;;;;16.21;nan;99341.72;6133385;23;20167;-82
2023/05/06 05:05:39;;;;;;;7.93;7.23;;;;;;;16.33;nan;99352.31;6133363;23;20240;-82
2023/05/06 05:08:12;;;;;;;7.30;6.70;;;;;;;16.34;nan;99347.72;6134948;23;20167;-82
2023/05/06 05:10:42;;;;;;;7.47;6.83;;;;;;;16.38;nan;99354.25;6157645;23;20176;-82
2023/05/06 05:13:13;;;;;;;7.47;6.87;;;;;;;16.42;nan;99352.66;6110258;23;20181;-81
2023/05/06 05:15:41;;;;;;;8.27;7.37;;;;;;;16.45;nan;99368.34;6110037;23;20178;-82
2023/05/06 05:18:08;;;;;;;10.43;6.90;;;;;;;16.42;nan;99366.16;6135276;23;20167;-81
2023/05/06 05:20:35;;;;;;;7.80;7.20;;;;;;;16.44;nan;99366.69;6135046;23;20171;-81
2023/05/06 05:23:03;;;;;;;7.90;7.10;;;;;;;16.34;nan;99366.66;6159192;23;20178;-81
2023/05/06 05:25:31;;;;;;;7.53;6.83;;;;;;;16.28;nan;99363.91;6134951;23;20206;-81
2023/05/06 05:27:58;;;;;;;7.70;7.10;;;;;;;16.37;nan;99363.44;6134857;23;20174;-82
2023/05/06 05:30:25;;;;;;;7.53;6.93;;;;;;;16.35;nan;99362.88;6135304;23;20176;-82
2023/05/06 05:32:52;;;;;;;7.30;6.70;;;;;;;16.41;nan;99357.25;6135582;23;20178;-82
2023/05/06 05:35:19;;;;;;;7.43;6.70;;;;;;;16.36;nan;99359.09;6111608;23;20177;-83
2023/05/06 05:37:48;;;;;;;7.03;6.47;;;;;;;16.29;nan;99367.44;6135377;23;20174;-82
2023/05/06 05:40:15;;;;;;;8.37;7.60;;;;;;;16.20;nan;99366.31;6135397;23;20178;-82
2023/05/06 05:42:42;;;;;;;7.57;6.97;;;;;;;16.15;nan;99364.41;6135157;23;20699;-83
2023/05/06 05:45:20;;;;;;;8.67;7.63;;;;;;;16.07;nan;99361.38;6159569;23;20197;-82
2023/05/06 05:47:48;;;;;;;8.07;7.37;;;;;;;16.06;nan;99357.03;6111396;23;20190;-82
2023/05/06 05:50:16;;;;;;;8.37;7.67;;;;;;;16.04;nan;99354.63;6135342;23;20271;-82
2023/05/06 05:52:44;;;;;;;7.70;7.10;;;;;;;16.14;nan;99360.06;6135231;23;20241;-82
2023/05/06 05:55:12;;;;;;;8.53;7.70;;;;;;;16.25;nan;99366.34;6135317;23;20629;-82
2023/05/06 05:57:41;;;;;;;9.40;8.60;;;;;;;16.43;nan;99368.59;6110111;23;20190;-82
2023/05/06 06:00:08;;;;;;;9.03;8.20;;;;;;;16.55;nan;99371.09;6134338;23;20178;-82
2023/05/06 06:02:42;;;;;;;9.10;8.27;;;;;;;16.57;nan;99371.63;6160998;23;20158;-82
2023/05/06 06:05:11;;;;;;;8.77;7.97;;;;;;;16.53;nan;99376.75;6135143;23;20193;-82
2023/05/06 06:07:38;;;;;;;8.80;8.00;;;;;;;16.50;nan;99371.88;6110113;23;20170;-81
2023/05/06 06:10:06;;;;;;;9.60;8.80;;;;;;;16.45;nan;99371.84;6110810;23;20190;-82
2023/05/06 06:12:33;;;;;;;9.23;8.33;;;;;;;16.42;nan;99371.56;6134585;23;20180;-82
2023/05/06 06:15:01;;;;;;;8.80;8.10;;;;;;;16.53;nan;99368.63;6134961;23;20181;-82
2023/05/06 06:17:29;;;;;;;9.07;8.27;;;;;;;16.57;nan;99369.72;6135012;23;20175;-82
2023/05/06 06:19:57;;;;;;;8.90;8.07;;;;;;;16.70;nan;99374.66;6134975;23;20170;-82
2023/05/06 06:22:25;;;;;;;9.97;8.17;;;;;;;16.79;nan;99383.09;6135318;23;20182;-81
2023/05/06 06:24:54;;;;;;;8.53;7.83;;;;;;;16.81;nan;99386.34;6123728;23;20251;-81
2023/05/06 06:27:21;;;;;;;9.27;8.50;;;;;;;16.82;nan;99379.88;6158631;23;20182;-82
2023/05/06 06:29:48;;;;;;;8.97;8.20;;;;;;;16.82;nan;99377.16;6134924;23;20250;-81
2023/05/06 06:32:15;;;;;;;9.10;8.40;;;;;;;16.77;nan;99379.03;6135267;23;20174;-81
2023/05/06 06:34:42;;;;;;;8.90;8.10;;;;;;;16.75;nan;99373.88;6135126;23;20174;-82
2023/05/06 06:37:09;;;;;;;9.47;8.57;;;;;;;16.80;nan;99382.00;6183963;23;20170;-82
2023/05/06 06:39:36;;;;;;;8.87;8.17;;;;;;;16.93;nan;99386.13;6134765;23;20601;-81
2023/05/06 06:42:03;;;;;;;9.07;8.27;;;;;;;17.12;nan;99390.75;6134462;23;20174;-82
2023/05/06 06:44:36;;;;;;;9.57;8.77;;;;;;;17.44;nan;99385.13;6137163;23;20162;-81
2023/05/06 06:47:03;;;;;;;9.17;8.47;;;;;;;17.72;nan;99389.22;6183446;23;20186;-81
2023/05/06 06:49:30;;;;;;;9.43;8.63;;;;;;;17.93;nan;99376.44;6183383;23;20170;-82
2023/05/06 06:51:56;;;;;;;8.80;8.10;;;;;;;18.29;nan;99388.03;6134759;23;20185;-82
2023/05/06 06:54:23;;;;;;;8.20;7.50;;;;;;;18.66;nan;99380.34;6158908;23;20174;-82
2023/05/06 06:56:56;;;;;;;8.10;7.40;;;;;;;19.02;nan;99385.59;6158586;23;20190;-81
2023/05/06 06:59:23;;;;;;;8.13;7.53;;;;;;;19.29;nan;99394.09;6135167;23;20219;-82
2023/05/06 07:01:52;;;;;;;8.23;7.53;;;;;;;19.52;nan;99389.88;6135394;23;20166;-81
2023/05/06 07:04:19;;;;;;;7.80;7.10;;;;;;;19.81;nan;99392.63;6134460;23;20168;-82
2023/05/06 07:06:46;;;;;;;8.30;7.47;;;;;;;20.12;nan;99383.88;6134082;23;20184;-81
2023/05/06 07:09:13;;;;;;;7.53;6.83;;;;;;;20.18;nan;99381.94;6183412;23;20179;-81
2023/05/06 07:11:40;;;;;;;7.60;7.00;;;;;;;20.28;nan;99389.19;6183251;23;20172;-81
2023/05/06 07:14:07;;;;;;;7.47;6.87;;;;;;;20.55;nan;99384.81;6134469;23;20172;-81
2023/05/06 07:16:33;;;;;;;7.40;6.80;;;;;;;20.87;nan;99389.56;6134180;23;20169;-81
2023/05/06 07:19:00;;;;;;;6.43;5.83;;;;;;;21.15;nan;99387.84;6158596;23;20194;-81
2023/05/06 07:21:27;;;;;;;7.03;6.40;;;;;;;21.31;nan;99388.44;6182955;23;20182;-81
2023/05/06 07:23:54;;;;;;;6.40;5.80;;;;;;;21.42;nan;99389.88;6184414;23;20271;-81
2023/05/06 07:26:21;;;;;;;6.10;5.70;;;;;;;21.17;nan;99382.13;6184263;23;20197;-81
2023/05/06 07:28:48;;;;;;;6.13;5.63;;;;;;;21.26;nan;99389.31;6133482;23;20636;-80
2023/05/06 07:31:15;;;;;;;5.77;4.53;;;;;;;21.22;nan;99391.03;6158430;23;20185;-81
2023/05/06 07:33:41;;;;;;;4.90;4.50;;;;;;;21.32;nan;99381.88;6184038;23;20177;-81
2023/05/06 07:36:08;;;;;;;4.93;4.53;;;;;;;21.19;nan;99386.16;6158023;23;20189;-82
2023/05/06 07:38:35;;;;;;;5.23;4.80;;;;;;;21.49;nan;99388.41;6157429;23;20652;-81
2023/05/06 07:41:02;;;;;;;4.37;3.97;;;;;;;21.82;nan;99391.97;6133555;23;20189;-81
2023/05/06 07:43:28;;;;;;;4.30;4.00;;;;;;;22.16;nan;99380.72;6133536;23;20180;-81
2023/05/06 07:46:01;;;;;;;4.25;3.95;;;;;;;22.54;nan;99386.00;6108970;23;20732;-81
2023/05/06 07:48:28;;;;;;;4.80;4.40;;;;;;;23.07;nan;99375.34;6110453;23;20602;-81
2023/05/06 07:50:55;;;;;;;4.70;4.07;;;;;;;23.51;nan;99374.63;6133182;23;20253;-80
2023/05/06 07:53:22;;;;;;;4.80;4.50;;;;;;;23.92;nan;99377.16;6109365;23;20170;-81
2023/05/06 07:55:51;;;;;;;4.68;4.20;;;;;;;24.17;nan;99367.50;6157858;23;20163;-80
2023/05/06 07:58:18;;;;;;;4.22;3.92;;;;;;;24.49;nan;99367.94;6158402;23;20186;-81
2023/05/06 08:00:44;;;;;;;5.30;4.80;;;;;;;24.66;nan;99369.91;6158031;23;20167;-79
2023/05/06 08:03:11;;;;;;;5.50;5.00;;;;;;;24.68;nan;99375.06;6157612;23;20261;-80
2023/05/06 08:05:38;;;;;;;4.63;4.32;;;;;;;24.65;nan;99372.97;6157853;23;20191;-81
2023/05/06 08:08:05;;;;;;;4.30;3.90;;;;;;;24.63;nan;99375.22;6157728;23;20178;-80
2023/05/06 08:10:31;;;;;;;4.28;3.97;;;;;;;24.67;nan;99376.19;6158047;23;20625;-80
2023/05/06 08:12:58;;;;;;;4.18;3.88;;;;;;;24.68;nan;99375.06;6133494;23;20185;-80
2023/05/06 08:15:25;;;;;;;5.05;4.55;;;;;;;24.76;nan;99375.09;6158131;23;20166;-81
2023/05/06 08:17:52;;;;;;;5.13;4.72;;;;;;;24.88;nan;99377.22;6108787;23;20172;-80
2023/05/06 08:20:19;;;;;;;4.88;4.40;;;;;;;24.96;nan;99374.50;6109081;23;20169;-80
2023/05/06 08:22:46;;;;;;;4.38;4.05;;;;;;;24.97;nan;99376.13;6133090;23;20625;-81
2023/05/06 08:25:13;;;;;;;6.03;3.90;;;;;;;24.94;nan;99375.97;6131723;23;20208;-81
2023/05/06 08:27:40;;;;;;;4.25;3.78;;;;;;;25.40;nan;99378.06;6132121;23;20191;-80
2023/05/06 08:30:07;;;;;;;4.00;3.60;;;;;;;25.61;nan;99378.28;6181735;23;20163;-80
2023/05/06 08:32:34;;;;;;;4.10;3.70;;;;;;;25.59;nan;99384.06;6156523;23;20187;-78
2023/05/06 08:35:01;;;;;;;4.93;3.20;;;;;;;25.67;nan;99377.75;6157419;23;20162;-80
2023/05/06 08:37:29;;;;;;;3.63;3.30;;;;;;;25.53;nan;99382.59;6132998;23;20166;-80
2023/05/06 08:39:56;;;;;;;3.83;3.53;;;;;;;25.39;nan;99377.28;6157911;23;20169;-81
2023/05/06 08:42:25;;;;;;;5.78;5.28;;;;;;;25.60;nan;99377.47;6157300;23;20177;-79
2023/05/06 08:44:54;;;;;;;4.85;4.43;;;;;;;25.83;nan;99378.88;6131468;23;20181;-81
2023/05/06 08:47:21;;;;;;;5.25;4.75;;;;;;;26.08;nan;99370.91;6132246;23;20191;-80
2023/05/06 08:49:48;;;;;;;5.30;4.90;;;;;;;26.03;nan;99382.88;6183154;23;20183;-80
2023/05/06 08:52:14;;;;;;;5.65;5.15;;;;;;;26.40;nan;99381.31;6184925;23;20160;-80
2023/05/06 08:54:41;;;;;;;4.63;4.32;;;;;;;27.01;nan;99374.38;6159292;23;20172;-80
2023/05/06 08:57:11;;;;;;;5.20;4.70;;;;;;;26.92;nan;99370.84;6134354;23;20191;-80
2023/05/06 08:59:39;;;;;;;4.10;3.80;;;;;;;27.34;nan;99365.38;6159019;23;20163;-80
2023/05/06 09:02:05;;;;;;;4.85;4.47;;;;;;;27.73;nan;99355.78;6159189;23;20189;-79
2023/05/06 09:04:33;;;;;;;4.60;4.20;;;;;;;27.72;nan;99366.00;6134725;23;20201;-80
2023/05/06 09:06:59;;;;;;;4.05;3.75;;;;;;;27.65;nan;99364.94;6158554;23;20182;-80
2023/05/06 09:09:26;;;;;;;5.03;3.60;;;;;;;27.61;nan;99364.81;6159433;23;20270;-81
2023/05/06 09:11:56;;;;;;;4.47;4.18;;;;;;;27.58;nan;99360.78;6159310;23;20189;-80
2023/05/06 09:14:23;;;;;;;4.40;4.00;;;;;;;28.10;nan;99351.16;6134220;23;20171;-79
2023/05/06 09:16:51;;;;;;;3.28;2.97;;;;;;;28.24;nan;99362.69;6134275;23;20660;-80
2023/05/06 09:19:20;;;;;;;4.03;3.72;;;;;;;28.11;nan;99352.81;6159019;23;20169;-80
2023/05/06 09:21:48;;;;;;;3.30;3.10;;;;;;;28.48;nan;99350.88;6158492;23;20675;-79
2023/05/06 09:24:15;;;;;;;3.90;3.60;;;;;;;28.51;nan;99356.50;6163396;23;20201;-79
2023/05/06 09:26:43;;;;;;;2.90;2.70;;;;;;;28.75;nan;99351.00;6183331;23;20178;-78
2023/05/06 09:29:10;;;;;;;2.90;2.70;;;;;;;28.94;nan;99357.88;6158674;23;20166;-80
2023/05/06 09:31:42;;;;;;;4.13;3.80;;;;;;;28.63;nan;99351.00;6158930;23;20167;-79
2023/05/06 09:34:09;;;;;;;3.08;2.88;;;;;;;28.78;nan;99349.53;6183352;23;20151;-79
2023/05/06 09:36:36;;;;;;;3.90;3.60;;;;;;;28.60;nan;99343.44;6183841;23;20158;-80
2023/05/06 09:39:04;;;;;;;6.00;4.30;;;;;;;28.64;nan;99343.53;6158978;23;20222;-79
2023/05/06 09:41:31;;;;;;;7.25;5.93;;;;;;;28.86;nan;99345.84;6185490;23;20159;-78
2023/05/06 09:43:58;;;;;;;4.35;3.95;;;;;;;28.58;nan;99340.22;6158887;23;20245;-79
2023/05/06 09:46:26;;;;;;;5.05;4.00;;;;;;;28.51;nan;99351.00;6185424;23;20182;-79
2023/05/06 09:48:55;;;;;;;3.58;3.28;;;;;;;28.36;nan;99338.72;6159333;23;20196;-78
2023/05/06 09:51:22;;;;;;;4.07;2.90;;;;;;;28.72;nan;99337.13;6134176;23;20170;-78
2023/05/06 09:53:50;;;;;;;3.28;2.97;;;;;;;29.15;nan;99337.25;6183691;23;20170;-79
2023/05/06 09:56:17;;;;;;;3.10;2.72;;;;;;;29.45;nan;99353.50;6134751;23;20182;-81
2023/05/06 09:58:44;;;;;;;3.70;3.40;;;;;;;29.53;nan;99353.38;6183559;23;20167;-80
2023/05/06 10:01:14;;;;;;;6.63;6.10;;;;;;;29.32;nan;99344.47;6158973;23;20253;-80
2023/05/06 10:03:52;;;;;;;2.67;2.47;;;;;;;29.14;nan;99338.41;6183631;23;20269;-79
2023/05/06 10:06:21;;;;;;;3.78;3.47;;;;;;;29.08;nan;99339.00;6158817;23;20527;-80
2023/05/06 10:08:49;;;;;;;2.60;2.40;;;;;;;28.90;nan;99332.94;6183557;23;20173;-79
2023/05/06 10:11:15;;;;;;;2.85;2.65;;;;;;;29.05;nan;99332.22;6183430;23;20217;-80
2023/05/06 10:13:43;;;;;;;3.05;2.85;;;;;;;29.29;nan;99337.69;6183611;23;20159;-80
2023/05/06 10:16:10;;;;;;;2.45;2.30;;;;;;;29.42;nan;99332.13;6158666;23;20178;-79
2023/05/06 10:18:40;;;;;;;3.08;2.50;;;;;;;29.40;nan;99328.91;6159636;23;20193;-78
2023/05/06 10:21:11;;;;;;;2.63;2.42;;;;;;;29.51;nan;99327.25;6158913;23;20194;-78
2023/05/06 10:23:51;;;;;;;6.00;5.50;;;;;;;29.61;nan;99329.50;6183101;23;20604;-80
2023/05/06 10:26:19;;;;;;;2.25;2.15;;;;;;;29.45;nan;99321.19;6158439;23;20182;-79
2023/05/06 10:28:51;;;;;;;2.60;2.00;;;;;;;29.39;nan;99317.09;6158373;23;20229;-80
2023/05/06 10:31:18;;;;;;;2.42;2.22;;;;;;;29.40;nan;99315.09;6158842;23;20430;-79
2023/05/06 10:33:47;;;;;;;2.55;2.35;;;;;;;29.11;nan;99308.78;6157849;23;20165;-80
2023/05/06 10:36:20;;;;;;;2.08;1.88;;;;;;;28.66;nan;99299.88;6134534;23;20173;-80
2023/05/06 10:38:55;;;;;;;2.05;1.95;;;;;;;28.64;nan;99302.19;6134225;23;20155;-77
2023/05/06 10:41:24;;;;;;;2.20;2.00;;;;;;;28.46;nan;99302.44;6134769;23;20177;-79
2023/05/06 10:43:55;;;;;;;2.55;2.35;;;;;;;28.65;nan;99296.31;6134002;23;20174;-79
2023/05/06 10:46:24;;;;;;;3.40;2.03;;;;;;;28.53;nan;99299.09;6133740;23;20197;-80
2023/05/06 10:49:04;;;;;;;2.40;2.20;;;;;;;28.14;nan;99297.03;6109879;23;20519;-79
2023/05/06 10:51:32;;;;;;;3.03;1.83;;;;;;;28.05;nan;99305.38;6158575;23;20150;-79
2023/05/06 10:54:26;;;;;;;2.70;2.50;;;;;;;27.99;nan;99307.59;6135327;23;20167;-79
2023/05/06 10:56:52;;;;;;;3.97;3.70;;;;;;;27.95;nan;99303.06;6133651;23;20273;-79
2023/05/06 10:59:20;;;;;;;2.53;2.33;;;;;;;27.80;nan;99295.50;6158657;23;20159;-78
2023/05/06 11:01:56;;;;;;;2.75;2.25;;;;;;;27.77;nan;99296.16;6133560;23;20181;-80
2023/05/06 11:04:22;;;;;;;10.15;9.35;;;;;;;27.88;nan;99297.34;6158389;23;20162;-82
2023/05/06 11:06:51;;;;;;;4.20;3.80;;;;;;;27.98;nan;99289.44;6133926;23;20667;-80
2023/05/06 11:09:19;;;;;;;2.10;1.95;;;;;;;28.14;nan;99284.06;6133617;23;20178;-79
2023/05/06 11:12:01;;;;;;;3.05;2.60;;;;;;;28.19;nan;99291.31;6133437;23;20170;-81
2023/05/06 11:14:34;;;;;;;2.15;2.05;;;;;;;27.98;nan;99289.44;6133528;23;20246;-79
2023/05/06 11:17:27;;;;;;;1.95;1.83;;;;;;;27.31;nan;99272.50;6109800;23;20167;-79
2023/05/06 11:20:21;;;;;;;7.25;6.57;;;;;;;27.95;nan;99281.03;6133601;23;20151;-80
2023/05/06 11:22:49;;;;;;;8.35;7.53;;;;;;;28.22;nan;99271.34;6158112;23;20240;-80
2023/05/06 11:25:41;;;;;;;3.78;1.90;;;;;;;28.86;nan;99283.22;6157305;23;20206;-80
2023/05/06 11:28:13;;;;;;;2.85;2.00;;;;;;;29.17;nan;99282.53;6133307;23;20178;-79
2023/05/06 11:30:41;;;;;;;2.15;1.90;;;;;;;29.06;nan;99275.13;6133407;23;20226;-79
2023/05/06 11:33:15;;;;;;;2.20;2.05;;;;;;;28.68;nan;99267.28;6108785;23;20225;-79
2023/05/06 11:35:42;;;;;;;3.08;2.70;;;;;;;28.77;nan;99268.78;6184011;23;20155;-80
2023/05/06 11:38:08;;;;;;;2.55;2.35;;;;;;;28.77;nan;99273.50;6157568;23;20167;-78
2023/05/06 11:40:35;;;;;;;2.38;2.25;;;;;;;28.68;nan;99272.78;6158123;23;20173;-80
2023/05/06 11:43:09;;;;;;;2.72;2.53;;;;;;;28.94;nan;99286.19;6133153;23;20166;-79
2023/05/06 11:45:42;;;;;;;3.53;1.80;;;;;;;29.57;nan;99284.47;6157899;23;20154;-78
2023/05/06 11:48:16;;;;;;;1.73;1.63;;;;;;;29.94;nan;99269.28;6133007;23;20190;-78
2023/05/06 11:50:46;;;;;;;1.85;1.75;;;;;;;30.23;nan;99264.47;6157940;23;20232;-78
2023/05/06 11:53:15;;;;;;;3.03;1.98;;;;;;;30.38;nan;99266.38;6133607;23;20181;-78
2023/05/06 11:55:43;;;;;;;2.70;1.80;;;;;;;30.41;nan;99258.19;6157379;23;20170;-80
2023/05/06 11:58:15;;;;;;;2.13;1.92;;;;;;;30.55;nan;99252.19;6133026;23;20187;-79